Time;durP1;ratioP1;P1;durP2;ratioP2;P2;SDS_P1;SDS_P2;PMS_P1;PMS_P2;Temp;Humidity;BMP_temperature;BMP_pressure;BME280_temperature;BME280_humidity;BME280_pressure;Samples;Min_cycle;Max_cycle;Signal;HPM_P1;HPM_P2
2022/10/12 00:00:15;;;;;;;8.82;2.95;;;7.20;99.90;;;;;;5095327;28;20099;-65
2022/10/12 00:02:42;;;;;;;4.00;2.15;;;7.20;99.90;;;;;;5080663;28;20052;-65
2022/10/12 00:05:08;;;;;;;7.30;2.00;;;7.10;99.90;;;;;;5095704;28;20072;-66
2022/10/12 00:07:33;;;;;;;6.22;2.08;;;7.00;99.90;;;;;;5095635;28;20067;-66
2022/10/12 00:09:59;;;;;;;6.22;2.25;;;6.90;99.90;;;;;;5094388;28;20048;-66
2022/10/12 00:12:24;;;;;;;5.45;2.05;;;6.90;99.90;;;;;;5095354;28;20048;-66
2022/10/12 00:14:50;;;;;;;7.22;2.88;;;7.00;99.90;;;;;;5087439;28;20044;-65
2022/10/12 00:17:16;;;;;;;5.85;2.63;;;;;;;;;;5089240;28;20123;-64
2022/10/12 00:19:41;;;;;;;4.72;2.33;;;7.00;99.90;;;;;;5094064;28;20036;-66
2022/10/12 00:22:07;;;;;;;8.48;2.35;;;6.90;99.90;;;;;;5095287;28;20075;-66
2022/10/12 00:24:33;;;;;;;4.10;2.85;;;6.90;99.90;;;;;;5095096;28;20047;-66
2022/10/12 00:26:58;;;;;;;7.40;2.40;;;6.90;99.90;;;;;;5095287;28;20387;-66
2022/10/12 00:29:24;;;;;;;8.82;3.58;;;6.90;99.90;;;;;;5093861;28;20105;-66
2022/10/12 00:31:50;;;;;;;15.80;3.30;;;;;;;;;;5087019;28;20380;-66
2022/10/12 00:34:16;;;;;;;5.57;2.75;;;;;;;;;;5089013;28;20178;-63
2022/10/12 00:36:42;;;;;;;10.82;3.05;;;7.00;99.90;;;;;;5080022;28;20040;-66
2022/10/12 00:39:09;;;;;;;6.10;2.88;;;7.10;99.90;;;;;;5095024;28;20044;-66
2022/10/12 00:41:37;;;;;;;5.35;2.92;;;7.00;99.90;;;;;;5090551;28;20040;-66
2022/10/12 00:44:03;;;;;;;9.88;3.10;;;6.90;99.90;;;;;;5081210;28;20039;-66
2022/10/12 00:46:35;;;;;;;6.97;2.67;;;7.00;99.90;;;;;;5081872;28;20041;-65
2022/10/12 00:49:03;;;;;;;7.00;2.92;;;7.10;99.90;;;;;;5079979;28;20040;-66
2022/10/12 00:51:29;;;;;;;3.42;2.83;;;7.00;99.90;;;;;;5082860;28;20080;-66
2022/10/12 00:54:02;;;;;;;7.60;3.22;;;7.00;99.90;;;;;;5078337;28;20067;-66
2022/10/12 00:56:32;;;;;;;7.18;3.40;;;6.90;99.90;;;;;;5083726;28;20158;-66
2022/10/12 00:59:01;;;;;;;7.70;3.88;;;6.70;99.90;;;;;;5084773;28;20090;-65
2022/10/12 01:01:27;;;;;;;9.98;4.32;;;6.80;99.90;;;;;;5092794;28;20044;-66
2022/10/12 01:03:53;;;;;;;9.32;4.25;;;6.80;99.90;;;;;;5094530;28;20046;-66
2022/10/12 01:06:19;;;;;;;8.57;4.18;;;;;;;;;;5094109;28;20036;-66
2022/10/12 01:08:45;;;;;;;10.65;3.90;;;7.10;99.90;;;;;;5087222;28;20044;-66
2022/10/12 01:11:11;;;;;;;7.03;3.60;;;7.00;99.90;;;;;;5079073;28;20113;-66
2022/10/12 01:13:37;;;;;;;8.40;4.22;;;7.10;99.90;;;;;;5085616;28;20040;-66
2022/10/12 01:16:25;;;;;;;6.80;3.83;;;7.10;99.90;;;;;;5087036;28;20044;-65
2022/10/12 01:19:14;;;;;;;9.77;4.65;;;7.00;99.90;;;;;;5093032;28;20048;-66
2022/10/12 01:21:48;;;;;;;13.63;4.63;;;7.00;99.90;;;;;;5092387;28;20075;-66
2022/10/12 01:24:26;;;;;;;13.95;4.78;;;7.30;99.90;;;;;;5094311;28;20040;-66
2022/10/12 01:27:01;;;;;;;16.00;6.03;;;7.80;99.90;;;;;;5089035;28;20090;-66
2022/10/12 01:30:03;;;;;;;11.35;4.85;;;7.60;99.90;;;;;;5086723;28;20044;-66
2022/10/12 01:32:45;;;;;;;7.38;4.10;;;7.50;99.90;;;;;;5092861;28;20048;-66
2022/10/12 01:35:36;;;;;;;13.48;4.57;;;7.40;99.90;;;;;;5093903;28;20389;-66
2022/10/12 01:38:13;;;;;;;8.80;4.60;;;7.30;99.90;;;;;;5094055;28;20044;-66
2022/10/12 01:40:45;;;;;;;7.40;4.38;;;7.40;99.90;;;;;;5079649;28;20040;-66
2022/10/12 01:43:10;;;;;;;9.38;4.35;;;7.50;99.90;;;;;;5094095;28;20051;-66
2022/10/12 01:45:36;;;;;;;7.28;4.53;;;7.40;99.90;;;;;;5092370;28;20043;-66
2022/10/12 01:48:03;;;;;;;7.30;4.13;;;7.50;99.90;;;;;;5081191;28;20055;-66
2022/10/12 01:50:38;;;;;;;12.73;4.75;;;7.40;99.90;;;;;;5089713;28;20075;-66
2022/10/12 01:53:21;;;;;;;6.82;4.20;;;7.30;99.90;;;;;;5094015;28;20044;-66
2022/10/12 01:55:50;;;;;;;8.38;4.03;;;7.40;99.90;;;;;;5077992;28;20497;-66
2022/10/12 01:58:27;;;;;;;6.28;3.58;;;7.30;99.90;;;;;;5092330;28;20040;-65
2022/10/12 02:01:01;;;;;;;8.52;3.67;;;7.20;99.90;;;;;;5077745;28;20135;-66
2022/10/12 02:03:42;;;;;;;10.55;4.63;;;7.30;99.90;;;;;;5092185;28;20043;-66
2022/10/12 02:06:12;;;;;;;9.00;4.90;;;7.40;99.90;;;;;;5079428;28;20421;-66
2022/10/12 02:08:45;;;;;;;9.57;4.95;;;7.50;99.90;;;;;;5093395;28;20032;-66
2022/10/12 02:11:13;;;;;;;14.23;4.35;;;7.40;99.90;;;;;;5074206;28;20433;-65
2022/10/12 02:13:47;;;;;;;7.75;4.75;;;7.50;99.90;;;;;;5083105;28;20039;-66
2022/10/12 02:16:17;;;;;;;12.85;3.92;;;7.40;99.90;;;;;;5093169;28;20118;-66
2022/10/12 02:18:46;;;;;;;6.20;3.35;;;7.60;99.90;;;;;;5091257;28;20040;-66
2022/10/12 02:21:14;;;;;;;8.88;3.88;;;7.40;99.90;;;;;;5079028;28;20031;-66
2022/10/12 02:23:41;;;;;;;10.82;5.22;;;7.40;99.90;;;;;;5083572;28;20039;-66
2022/10/12 02:26:08;;;;;;;10.35;4.15;;;7.40;99.90;;;;;;5074507;28;20080;-66
2022/10/12 02:28:36;;;;;;;10.73;4.45;;;7.40;99.90;;;;;;5093395;28;20040;-65
2022/10/12 02:31:19;;;;;;;9.02;3.85;;;7.40;99.90;;;;;;5093064;28;20036;-66
2022/10/12 02:33:59;;;;;;;9.38;4.20;;;7.40;99.90;;;;;;5081231;28;20044;-66
2022/10/12 02:36:33;;;;;;;15.18;5.25;;;7.10;99.90;;;;;;5078795;28;20040;-66
2022/10/12 02:39:13;;;;;;;9.23;3.88;;;7.20;99.90;;;;;;5093088;28;20088;-65
2022/10/12 02:41:48;;;;;;;6.15;4.07;;;7.10;99.90;;;;;;5089638;28;20039;-66
2022/10/12 02:44:19;;;;;;;4.85;4.18;;;7.20;99.90;;;;;;5077847;28;20052;-66
2022/10/12 02:46:47;;;;;;;7.78;4.32;;;7.10;99.90;;;;;;5074028;28;20049;-66
2022/10/12 02:49:14;;;;;;;5.68;4.05;;;7.00;99.90;;;;;;5072772;28;20061;-66
2022/10/12 02:51:42;;;;;;;8.52;4.50;;;7.00;99.90;;;;;;5085744;28;20051;-66
2022/10/12 02:54:08;;;;;;;5.40;3.60;;;6.90;99.90;;;;;;5072794;28;20067;-66
2022/10/12 02:56:34;;;;;;;9.35;4.15;;;6.80;99.90;;;;;;5087140;28;20522;-65
2022/10/12 02:58:59;;;;;;;9.27;4.03;;;6.70;99.90;;;;;;5091830;28;20068;-66
2022/10/12 03:01:25;;;;;;;9.00;4.18;;;6.80;99.90;;;;;;5079091;28;20047;-66
2022/10/12 03:03:50;;;;;;;13.63;3.75;;;6.80;99.90;;;;;;5071512;28;20110;-66
2022/10/12 03:06:16;;;;;;;9.82;4.28;;;6.90;99.90;;;;;;5072598;28;20486;-65
2022/10/12 03:08:41;;;;;;;6.88;4.32;;;6.90;99.90;;;;;;5084802;28;20090;-66
2022/10/12 03:11:11;;;;;;;9.68;4.38;;;7.00;99.90;;;;;;5074460;28;20041;-65
2022/10/12 03:13:37;;;;;;;10.57;4.50;;;7.00;99.90;;;;;;5072625;28;20123;-66
2022/10/12 03:16:09;;;;;;;11.73;4.15;;;7.00;99.90;;;;;;5089408;28;20581;-66
2022/10/12 03:18:35;;;;;;;6.35;4.50;;;6.90;99.90;;;;;;5091622;28;20040;-66
2022/10/12 03:21:00;;;;;;;18.92;5.68;;;7.00;99.90;;;;;;5076791;28;20500;-66
2022/10/12 03:23:26;;;;;;;14.60;6.32;;;7.30;99.90;;;;;;5072388;28;20040;-66
2022/10/12 03:25:52;;;;;;;14.77;6.18;;;7.60;99.90;;;;;;5086123;28;20036;-66
2022/10/12 03:28:17;;;;;;;11.98;5.80;;;7.70;99.90;;;;;;5092660;28;20440;-66
2022/10/12 03:30:43;;;;;;;12.65;6.28;;;7.80;99.90;;;;;;5095617;28;20071;-66
2022/10/12 03:33:09;;;;;;;15.95;5.68;;;7.90;99.90;;;;;;5094839;28;20085;-66
2022/10/12 03:35:34;;;;;;;12.02;5.53;;;7.90;99.90;;;;;;5086590;28;20120;-66
2022/10/12 03:38:00;;;;;;;15.95;7.20;;;7.80;99.90;;;;;;5090374;28;20405;-66
2022/10/12 03:40:25;;;;;;;14.23;6.03;;;7.80;99.90;;;;;;5082212;28;20122;-65
2022/10/12 03:42:51;;;;;;;14.27;6.40;;;8.10;99.90;;;;;;5095171;28;20129;-65
2022/10/12 03:45:16;;;;;;;19.02;6.57;;;7.90;99.90;;;;;;5089260;28;20051;-66
2022/10/12 03:47:42;;;;;;;14.80;6.40;;;7.80;99.90;;;;;;5094704;28;20040;-65
2022/10/12 03:50:08;;;;;;;11.93;6.05;;;7.80;99.90;;;;;;5094963;28;20044;-66
2022/10/12 03:52:33;;;;;;;17.45;6.50;;;7.80;99.90;;;;;;5094681;28;20040;-66
2022/10/12 03:54:59;;;;;;;11.65;7.13;;;7.70;99.90;;;;;;5080183;28;20052;-66
2022/10/12 03:57:24;;;;;;;14.75;6.13;;;7.60;99.90;;;;;;5094667;28;20052;-66
2022/10/12 03:59:50;;;;;;;14.20;6.38;;;7.60;99.90;;;;;;5095982;28;20047;-66
2022/10/12 04:02:16;;;;;;;18.67;6.70;;;;;;;;;;5090269;28;20044;-66
2022/10/12 04:04:41;;;;;;;19.17;6.55;;;7.50;99.90;;;;;;5087123;28;20127;-66
2022/10/12 04:07:07;;;;;;;15.18;6.22;;;7.40;99.90;;;;;;5076842;28;20120;-66
2022/10/12 04:09:33;;;;;;;16.48;6.72;;;7.70;99.90;;;;;;5089747;28;20033;-66
2022/10/12 04:11:59;;;;;;;12.60;5.72;;;7.70;99.90;;;;;;5085339;28;20044;-66
2022/10/12 04:14:24;;;;;;;18.40;6.70;;;7.70;99.90;;;;;;5081256;28;20063;-66
2022/10/12 04:16:53;;;;;;;12.43;5.78;;;;;;;;;;5095491;28;20486;-66
2022/10/12 04:19:19;;;;;;;15.95;6.20;;;7.60;99.90;;;;;;5094172;28;20040;-66
2022/10/12 04:21:44;;;;;;;12.50;5.57;;;7.60;99.90;;;;;;5077580;28;20128;-66
2022/10/12 04:24:10;;;;;;;13.90;6.20;;;7.60;99.90;;;;;;5080563;28;20048;-66
2022/10/12 04:26:35;;;;;;;12.55;6.00;;;7.60;99.90;;;;;;5089128;28;20040;-66
2022/10/12 04:29:01;;;;;;;14.23;6.43;;;7.80;99.90;;;;;;5086731;28;20107;-66
2022/10/12 04:31:27;;;;;;;21.40;6.50;;;;;;;;;;5080897;28;20076;-65
2022/10/12 04:33:55;;;;;;;15.80;5.40;;;7.80;99.90;;;;;;5084151;28;20069;-65
2022/10/12 04:36:25;;;;;;;18.05;6.60;;;7.70;99.90;;;;;;5073671;28;20045;-66
2022/10/12 04:38:51;;;;;;;19.13;6.57;;;7.60;99.90;;;;;;5083180;28;20079;-66
2022/10/12 04:41:16;;;;;;;11.43;5.70;;;7.50;99.90;;;;;;5079940;28;20032;-65
2022/10/12 04:43:42;;;;;;;9.90;6.18;;;7.60;99.90;;;;;;5088342;28;20050;-66
2022/10/12 04:46:07;;;;;;;15.27;6.38;;;7.50;99.90;;;;;;5093860;28;20125;-65
2022/10/12 04:48:33;;;;;;;12.55;6.32;;;7.40;99.90;;;;;;5094898;28;20496;-66
2022/10/12 04:50:59;;;;;;;13.65;6.72;;;7.40;99.90;;;;;;5083209;28;20079;-66
2022/10/12 04:53:24;;;;;;;9.60;6.72;;;7.40;99.90;;;;;;5088872;28;20040;-66
2022/10/12 04:55:50;;;;;;;18.48;7.38;;;7.30;99.90;;;;;;5081496;28;20040;-66
2022/10/12 04:58:15;;;;;;;16.65;6.07;;;7.10;99.90;;;;;;5080529;28;20119;-65
2022/10/12 05:00:41;;;;;;;14.25;6.80;;;7.20;99.90;;;;;;5093189;28;20048;-65
2022/10/12 05:03:06;;;;;;;17.10;7.05;;;7.20;99.90;;;;;;5094771;28;20044;-66
2022/10/12 05:05:33;;;;;;;13.95;6.85;;;7.30;99.90;;;;;;5093208;28;20044;-65
2022/10/12 05:07:59;;;;;;;11.50;6.55;;;7.20;99.90;;;;;;5094731;28;20046;-66
2022/10/12 05:10:24;;;;;;;13.27;6.43;;;7.40;99.90;;;;;;5094630;28;20215;-66
2022/10/12 05:12:50;;;;;;;16.15;6.22;;;7.10;99.90;;;;;;5092951;28;20036;-66
2022/10/12 05:15:16;;;;;;;11.07;6.57;;;7.20;99.90;;;;;;5083995;28;20040;-66
2022/10/12 05:17:41;;;;;;;14.70;6.50;;;7.20;99.90;;;;;;5090463;28;20553;-66
2022/10/12 05:20:08;;;;;;;21.20;6.82;;;7.20;99.90;;;;;;5094230;28;20038;-66
2022/10/12 05:22:33;;;;;;;15.55;6.75;;;7.20;99.90;;;;;;5092750;28;20059;-66
2022/10/12 05:24:59;;;;;;;16.73;6.93;;;7.10;99.90;;;;;;5094370;28;20071;-66
2022/10/12 05:27:24;;;;;;;13.55;6.82;;;7.00;99.90;;;;;;5081765;28;20087;-66
2022/10/12 05:29:50;;;;;;;13.60;6.65;;;7.10;99.90;;;;;;5072494;28;20040;-66
2022/10/12 05:32:16;;;;;;;17.73;6.68;;;7.00;99.90;;;;;;5072675;28;20051;-66
2022/10/12 05:34:42;;;;;;;16.30;6.53;;;7.10;99.90;;;;;;5074378;28;20041;-65
2022/10/12 05:37:08;;;;;;;22.23;7.45;;;7.00;99.90;;;;;;5085478;28;20044;-66
2022/10/12 05:39:35;;;;;;;15.90;6.60;;;7.00;99.90;;;;;;5088004;28;20039;-65
2022/10/12 05:42:01;;;;;;;11.95;6.43;;;6.90;99.90;;;;;;5080647;28;20024;-65
2022/10/12 05:44:26;;;;;;;16.42;6.78;;;6.90;99.90;;;;;;5093791;28;20605;-66
2022/10/12 05:46:52;;;;;;;15.88;6.93;;;6.80;99.90;;;;;;5093701;28;20098;-66
2022/10/12 05:49:17;;;;;;;13.98;6.90;;;6.80;99.90;;;;;;5081931;28;20040;-66
2022/10/12 05:51:43;;;;;;;14.75;7.28;;;6.80;99.90;;;;;;5087430;28;20123;-66
2022/10/12 05:54:08;;;;;;;13.82;6.55;;;6.80;99.90;;;;;;5071901;28;20115;-66
2022/10/12 05:56:34;;;;;;;14.57;6.65;;;6.70;99.90;;;;;;5087443;28;20044;-65
2022/10/12 05:59:00;;;;;;;13.10;5.93;;;6.70;99.90;;;;;;5079655;28;20036;-65
2022/10/12 06:01:25;;;;;;;12.10;6.05;;;6.80;99.90;;;;;;5093321;28;20135;-66
2022/10/12 06:03:53;;;;;;;12.75;6.10;;;6.70;99.90;;;;;;5073455;28;20483;-66
2022/10/12 06:06:19;;;;;;;13.80;6.05;;;6.60;99.90;;;;;;5083787;28;20036;-66
2022/10/12 06:08:45;;;;;;;15.25;6.75;;;6.70;99.90;;;;;;5093588;28;20032;-65
2022/10/12 06:11:10;;;;;;;16.55;7.32;;;6.70;99.90;;;;;;5078132;28;20115;-66
2022/10/12 06:13:36;;;;;;;14.73;6.80;;;6.70;99.90;;;;;;5091900;28;20134;-66
2022/10/12 06:16:01;;;;;;;23.52;7.88;;;6.80;99.90;;;;;;5089490;28;20040;-66
2022/10/12 06:18:27;;;;;;;15.55;7.20;;;6.80;99.90;;;;;;5080382;28;20375;-66
2022/10/12 06:20:54;;;;;;;13.27;7.20;;;6.70;99.90;;;;;;5093123;28;20028;-66
2022/10/12 06:23:20;;;;;;;17.23;7.35;;;6.80;99.90;;;;;;5091873;28;20044;-66
2022/10/12 06:25:47;;;;;;;17.20;7.28;;;6.90;99.90;;;;;;5086965;28;20055;-66
2022/10/12 06:28:13;;;;;;;16.20;6.68;;;6.80;99.90;;;;;;5093036;28;20114;-66
2022/10/12 06:30:39;;;;;;;12.98;6.82;;;6.80;99.90;;;;;;5078914;28;20044;-66
2022/10/12 06:33:05;;;;;;;15.23;7.03;;;6.80;99.90;;;;;;5075256;28;20043;-65
2022/10/12 06:35:31;;;;;;;11.05;6.93;;;6.90;99.90;;;;;;5074918;28;20047;-64
2022/10/12 06:37:57;;;;;;;14.18;7.97;;;;;;;;;;5073157;28;20033;-65
2022/10/12 06:40:23;;;;;;;12.02;7.68;;;6.70;99.90;;;;;;5074382;28;20090;-64
2022/10/12 06:42:49;;;;;;;19.35;7.70;;;6.70;99.90;;;;;;5073566;28;20043;-64
2022/10/12 06:45:15;;;;;;;21.08;9.63;;;6.70;99.90;;;;;;5074650;28;20040;-64
2022/10/12 06:47:40;;;;;;;16.23;7.43;;;6.70;99.90;;;;;;5071373;28;20040;-64
2022/10/12 06:50:07;;;;;;;15.73;7.45;;;;;;;;;;5076490;28;20032;-65
2022/10/12 06:52:33;;;;;;;16.23;7.15;;;;;;;;;;5073370;28;20494;-66
2022/10/12 06:54:59;;;;;;;17.00;8.80;;;;;;;;;;5072717;28;20072;-65
2022/10/12 06:57:25;;;;;;;16.67;7.45;;;;;;;;;;5077909;28;20097;-65
2022/10/12 06:59:51;;;;;;;15.38;8.25;;;;;;;;;;5091576;28;20036;-65
2022/10/12 07:02:17;;;;;;;18.63;8.23;;;7.10;99.90;;;;;;5079181;28;20083;-65
2022/10/12 07:04:42;;;;;;;15.20;8.32;;;7.10;99.90;;;;;;5091552;28;20051;-65
2022/10/12 07:07:08;;;;;;;12.77;8.18;;;7.30;99.90;;;;;;5093483;28;20100;-66
2022/10/12 07:09:35;;;;;;;14.75;8.07;;;7.50;99.90;;;;;;5090810;28;20509;-65
2022/10/12 07:12:01;;;;;;;18.25;8.43;;;;;;;;;;5074361;28;20044;-65
2022/10/12 07:14:27;;;;;;;16.45;8.68;;;;;;;;;;5078886;28;20039;-65
2022/10/12 07:16:53;;;;;;;15.45;8.27;;;;;;;;;;5095967;28;20383;-66
2022/10/12 07:19:18;;;;;;;15.25;8.25;;;7.90;99.90;;;;;;5087636;28;20047;-65
2022/10/12 07:21:44;;;;;;;12.77;7.55;;;8.10;99.90;;;;;;5094768;28;20397;-65
2022/10/12 07:24:13;;;;;;;14.20;8.45;;;;;;;;;;5094434;28;20526;-65
2022/10/12 07:26:39;;;;;;;16.92;8.02;;;;;;;;;;5090303;28;20089;-65
2022/10/12 07:29:05;;;;;;;19.10;9.02;;;8.30;99.90;;;;;;5075144;28;20041;-65
2022/10/12 07:31:30;;;;;;;17.45;8.23;;;8.50;99.90;;;;;;5083526;28;20376;-66
2022/10/12 07:33:56;;;;;;;17.17;8.13;;;8.40;99.90;;;;;;5077050;28;20078;-66
2022/10/12 07:36:21;;;;;;;16.92;8.43;;;8.30;99.90;;;;;;5077695;28;20119;-65
2022/10/12 07:38:48;;;;;;;16.17;9.73;;;;;;;;;;5075215;28;20037;-64
2022/10/12 07:41:14;;;;;;;21.30;10.73;;;;;;;;;;5059794;28;20494;-65
2022/10/12 07:43:40;;;;;;;20.65;9.20;;;8.30;99.90;;;;;;5088486;28;20071;-66
2022/10/12 07:46:06;;;;;;;19.08;11.07;;;;;;;;;;5073764;28;20080;-65
2022/10/12 07:48:33;;;;;;;20.73;11.45;;;;;;;;;;5079109;28;20028;-66
2022/10/12 07:51:07;;;;;;;17.35;10.77;;;8.30;99.90;;;;;;5074302;28;20044;-66
2022/10/12 07:53:34;;;;;;;20.23;10.20;;;;;;;;;;5078112;28;20044;-66
2022/10/12 07:56:04;;;;;;;23.92;11.05;;;8.30;99.90;;;;;;5084418;28;20047;-64
2022/10/12 07:58:30;;;;;;;20.20;10.65;;;8.30;99.90;;;;;;5092014;28;20052;-65
2022/10/12 08:00:56;;;;;;;20.83;10.10;;;8.30;99.90;;;;;;5099884;28;20048;-65
2022/10/12 08:03:21;;;;;;;21.40;10.93;;;8.40;99.90;;;;;;5091228;28;20378;-64
2022/10/12 08:05:47;;;;;;;21.05;10.48;;;;;;;;;;5083567;28;20084;-65
2022/10/12 08:08:13;;;;;;;13.75;9.15;;;;;;;;;;5081940;28;20036;-65
2022/10/12 08:10:39;;;;;;;18.80;10.38;;;;;;;;;;5092356;28;20048;-65
2022/10/12 08:13:05;;;;;;;18.65;9.88;;;8.50;99.90;;;;;;5103563;28;20075;-65
2022/10/12 08:15:30;;;;;;;21.15;10.80;;;8.60;99.90;;;;;;5103181;28;20044;-65
2022/10/12 08:17:56;;;;;;;22.00;10.82;;;8.60;99.90;;;;;;5105460;28;20118;-64
2022/10/12 08:20:21;;;;;;;18.77;10.43;;;8.70;99.90;;;;;;5096522;28;20048;-64
2022/10/12 08:22:47;;;;;;;19.23;10.77;;;;;;;;;;5095000;28;20047;-64
2022/10/12 08:25:13;;;;;;;14.13;9.50;;;9.70;99.90;;;;;;5094313;28;20036;-64
2022/10/12 08:27:39;;;;;;;13.85;9.27;;;10.50;99.90;;;;;;5078785;28;20130;-64
2022/10/12 08:30:08;;;;;;;20.08;8.55;;;10.80;99.90;;;;;;5093931;28;20059;-64
2022/10/12 08:32:33;;;;;;;19.05;7.93;;;11.50;99.90;;;;;;5089667;28;20044;-64
2022/10/12 08:35:00;;;;;;;17.98;7.97;;;12.20;99.90;;;;;;5083371;28;20035;-64
2022/10/12 08:37:25;;;;;;;12.68;8.13;;;12.10;99.90;;;;;;5088540;28;20393;-63
2022/10/12 08:39:51;;;;;;;13.27;6.78;;;12.40;99.90;;;;;;5088946;28;20120;-65
2022/10/12 08:42:43;;;;;;;15.15;7.18;;;12.40;99.90;;;;;;5082331;28;20135;-64
2022/10/12 08:45:35;;;;;;;10.52;6.40;;;13.20;99.90;;;;;;5091382;28;20393;-64
2022/10/12 08:48:09;;;;;;;17.73;6.60;;;14.50;99.90;;;;;;5088407;28;20040;-65
2022/10/12 08:50:41;;;;;;;15.00;8.35;;;14.80;99.90;;;;;;5093580;28;20107;-65
2022/10/12 08:53:19;;;;;;;12.50;5.47;;;17.20;99.90;;;;;;5094506;28;20044;-65
2022/10/12 08:55:45;;;;;;;12.50;6.18;;;17.70;99.90;;;;;;5091046;28;20402;-65
2022/10/12 08:58:19;;;;;;;14.85;5.75;;;17.20;99.90;;;;;;5092474;28;20036;-65
2022/10/12 09:00:49;;;;;;;11.68;5.28;;;17.10;99.90;;;;;;5080903;28;20402;-65
2022/10/12 09:03:52;;;;;;;15.18;5.38;;;17.90;99.90;;;;;;5094297;28;20250;-65
2022/10/12 09:06:21;;;;;;;12.40;4.57;;;17.90;99.90;;;;;;5083689;28;20047;-65
2022/10/12 09:08:57;;;;;;;11.43;5.32;;;18.30;99.90;;;;;;5093371;28;20044;-63
2022/10/12 09:11:47;;;;;;;11.93;5.85;;;18.20;99.90;;;;;;5094673;28;20044;-64
2022/10/12 09:14:29;;;;;;;11.30;3.83;;;18.50;99.90;;;;;;5092938;28;20040;-64
2022/10/12 09:16:56;;;;;;;9.10;3.70;;;17.50;99.90;;;;;;5092928;28;20052;-66
2022/10/12 09:19:39;;;;;;;11.20;4.55;;;17.90;99.90;;;;;;5088292;28;20044;-65
2022/10/12 09:22:16;;;;;;;10.85;3.78;;;18.30;99.90;;;;;;5073756;28;20040;-66
2022/10/12 09:24:41;;;;;;;7.82;3.22;;;19.40;99.90;;;;;;5090625;28;20047;-66
2022/10/12 09:27:17;;;;;;;10.05;4.07;;;19.80;99.90;;;;;;5088306;28;20048;-66
2022/10/12 09:29:49;;;;;;;10.23;3.40;;;21.50;99.90;;;;;;5084012;28;20051;-64
2022/10/12 09:32:21;;;;;;;8.18;3.40;;;22.50;99.90;;;;;;5088408;28;20046;-66
2022/10/12 09:34:48;;;;;;;8.15;3.22;;;23.50;99.90;;;;;;5087907;28;20044;-66
2022/10/12 09:37:26;;;;;;;9.93;2.85;;;24.40;99.90;;;;;;5103042;28;20039;-67
2022/10/12 09:39:53;;;;;;;9.82;2.97;;;25.40;99.90;;;;;;5081143;28;20044;-66
2022/10/12 09:42:18;;;;;;;8.77;2.55;;;26.00;99.90;;;;;;5093372;28;20053;-67
2022/10/12 09:44:50;;;;;;;7.65;2.97;;;26.50;99.90;;;;;;5093816;28;20044;-68
2022/10/12 09:47:27;;;;;;;7.68;2.40;;;26.20;99.20;;;;;;5090693;28;20047;-66
2022/10/12 09:49:57;;;;;;;6.85;2.58;;;26.80;99.30;;;;;;5088582;28;20444;-67
2022/10/12 09:52:41;;;;;;;8.93;2.35;;;27.00;98.00;;;;;;5085388;28;20044;-67
2022/10/12 09:55:15;;;;;;;10.73;2.95;;;26.60;97.20;;;;;;5089159;28;20120;-67
2022/10/12 09:57:43;;;;;;;6.05;1.73;;;26.00;95.30;;;;;;5093386;28;20043;-67
2022/10/12 10:00:32;;;;;;;10.43;2.40;;;25.60;96.70;;;;;;5102553;28;20401;-66
2022/10/12 10:02:59;;;;;;;6.43;2.65;;;25.30;95.50;;;;;;5101659;28;20051;-66
2022/10/12 10:05:33;;;;;;;7.65;2.50;;;24.70;96.70;;;;;;5086339;28;20047;-66
2022/10/12 10:08:19;;;;;;;12.57;3.20;;;24.10;97.40;;;;;;5093410;28;20040;-66
2022/10/12 10:10:52;;;;;;;8.38;3.30;;;23.50;97.60;;;;;;5093054;28;20089;-64
2022/10/12 10:13:20;;;;;;;9.23;2.78;;;23.20;98.10;;;;;;5091991;28;20044;-64
2022/10/12 10:15:49;;;;;;;7.13;2.92;;;22.00;99.40;;;;;;5091439;28;20067;-64
2022/10/12 10:18:49;;;;;;;9.20;2.85;;;21.00;99.90;;;;;;5093189;28;20032;-64
2022/10/12 10:21:31;;;;;;;9.05;2.75;;;19.80;99.90;;;;;;5078084;28;20415;-63
2022/10/12 10:24:06;;;;;;;8.13;2.63;;;18.80;99.90;;;;;;5083980;28;20500;-64
2022/10/12 10:26:56;;;;;;;11.15;2.78;;;18.10;99.90;;;;;;5088381;28;20496;-64
2022/10/12 10:29:31;;;;;;;11.90;2.92;;;17.60;99.90;;;;;;5092287;28;20044;-64
2022/10/12 10:32:25;;;;;;;8.63;2.50;;;16.70;99.90;;;;;;5083143;28;20036;-65
2022/10/12 10:35:12;;;;;;;8.40;2.13;;;16.60;99.90;;;;;;5075469;28;20047;-64
2022/10/12 10:37:57;;;;;;;11.27;2.83;;;16.40;99.90;;;;;;5087555;28;20058;-64
2022/10/12 10:40:48;;;;;;;11.25;2.85;;;16.20;99.90;;;;;;5076334;28;20067;-65
2022/10/12 10:43:33;;;;;;;9.15;2.28;;;15.90;99.90;;;;;;5078080;28;20035;-64
2022/10/12 10:46:24;;;;;;;13.93;2.97;;;16.00;99.90;;;;;;5082295;28;20102;-64
2022/10/12 10:48:55;;;;;;;9.25;2.97;;;15.90;99.90;;;;;;5074158;28;20040;-64
2022/10/12 10:51:21;;;;;;;9.90;2.78;;;15.90;99.90;;;;;;5087815;28;20044;-64
2022/10/12 10:53:49;;;;;;;7.68;2.65;;;15.60;99.90;;;;;;5092922;28;22013;-64
2022/10/12 10:56:25;;;;;;;7.70;3.03;;;15.50;99.90;;;;;;5091630;28;20062;-65
2022/10/12 10:58:56;;;;;;;11.77;3.05;;;15.30;99.90;;;;;;5092274;28;20059;-65
2022/10/12 11:01:35;;;;;;;10.38;2.88;;;15.30;99.90;;;;;;5092523;28;20044;-67
2022/10/12 11:04:16;;;;;;;14.27;3.42;;;15.30;99.90;;;;;;5084926;28;20044;-65
2022/10/12 11:06:45;;;;;;;11.73;3.17;;;15.30;99.90;;;;;;5086280;28;20516;-66
2022/10/12 11:09:28;;;;;;;9.65;2.83;;;15.30;99.90;;;;;;5088665;28;20032;-65
2022/10/12 11:12:14;;;;;;;12.65;2.92;;;15.30;99.90;;;;;;5091666;28;20044;-67
2022/10/12 11:14:49;;;;;;;9.82;2.30;;;15.30;99.90;;;;;;5087961;28;20051;-66
2022/10/12 11:17:30;;;;;;;13.35;2.92;;;15.20;99.90;;;;;;5092676;28;20036;-67
2022/10/12 11:20:20;;;;;;;12.35;2.45;;;15.10;99.90;;;;;;5083465;28;20047;-67
2022/10/12 11:23:20;;;;;;;11.60;3.25;;;15.10;99.90;;;;;;5081411;28;20036;-65
2022/10/12 11:26:23;;;;;;;8.45;2.97;;;15.20;99.90;;;;;;5083202;28;20075;-65
2022/10/12 11:28:49;;;;;;;8.80;2.95;;;;;;;;;;5090293;28;20494;-65
2022/10/12 11:31:23;;;;;;;14.25;3.15;;;15.30;99.90;;;;;;5092708;28;20044;-65
2022/10/12 11:33:51;;;;;;;10.77;2.88;;;15.20;99.90;;;;;;5079113;28;20101;-66
2022/10/12 11:36:19;;;;;;;11.07;3.85;;;15.40;99.90;;;;;;5090807;28;20040;-67
2022/10/12 11:38:48;;;;;;;11.27;3.00;;;15.60;99.90;;;;;;5090130;28;20040;-67
2022/10/12 11:41:21;;;;;;;12.00;2.90;;;15.60;99.90;;;;;;5090463;28;20063;-66
2022/10/12 11:43:55;;;;;;;10.20;2.67;;;15.40;99.90;;;;;;5087849;28;20036;-67
2022/10/12 11:46:31;;;;;;;10.77;3.00;;;15.40;99.90;;;;;;5088249;28;20093;-66
2022/10/12 11:49:23;;;;;;;13.02;2.15;;;15.40;99.90;;;;;;5072618;28;20040;-66
2022/10/12 11:51:51;;;;;;;9.77;2.20;;;15.30;99.90;;;;;;5080329;28;20040;-67
2022/10/12 11:54:29;;;;;;;14.98;5.03;;;15.40;99.90;;;;;;5091825;28;20505;-66
2022/10/12 11:56:59;;;;;;;8.52;2.10;;;15.20;99.90;;;;;;5079482;28;20040;-65
2022/10/12 11:59:43;;;;;;;9.63;2.03;;;15.30;99.90;;;;;;5077915;28;20040;-66
2022/10/12 12:02:22;;;;;;;6.85;2.22;;;15.30;99.90;;;;;;5080999;28;20470;-65
2022/10/12 12:04:48;;;;;;;9.63;2.10;;;15.20;99.90;;;;;;5093771;28;20394;-65
2022/10/12 12:07:35;;;;;;;13.18;2.67;;;15.10;99.90;;;;;;5097571;28;20401;-65
2022/10/12 12:10:20;;;;;;;10.77;2.00;;;15.30;99.90;;;;;;5081987;28;20078;-65
2022/10/12 12:13:10;;;;;;;7.43;2.10;;;15.30;99.90;;;;;;5093523;28;20075;-65
2022/10/12 12:15:37;;;;;;;11.77;2.30;;;15.40;99.90;;;;;;5093237;28;20566;-66
2022/10/12 12:18:09;;;;;;;9.32;1.90;;;15.20;99.90;;;;;;5093364;28;20062;-65
2022/10/12 12:20:43;;;;;;;14.05;4.35;;;15.30;99.90;;;;;;5094519;28;20044;-65
2022/10/12 12:23:23;;;;;;;11.43;3.25;;;15.30;99.90;;;;;;5094376;28;20068;-65
2022/10/12 12:26:03;;;;;;;7.93;2.13;;;15.30;99.90;;;;;;5093341;28;20058;-65
2022/10/12 12:28:31;;;;;;;8.80;2.45;;;15.30;99.90;;;;;;5093291;28;20067;-65
2022/10/12 12:30:59;;;;;;;6.50;1.60;;;15.30;99.90;;;;;;5091906;28;20055;-65
2022/10/12 12:33:32;;;;;;;6.22;1.83;;;15.20;99.90;;;;;;5088699;28;20036;-65
2022/10/12 12:36:06;;;;;;;5.82;1.60;;;15.30;99.90;;;;;;5072715;28;20124;-65
2022/10/12 12:38:36;;;;;;;9.63;2.20;;;15.60;99.90;;;;;;5093846;28;20049;-66
2022/10/12 12:41:03;;;;;;;6.68;1.60;;;15.20;99.90;;;;;;5094321;28;20122;-65
2022/10/12 12:43:29;;;;;;;6.65;1.52;;;15.30;99.90;;;;;;5092882;28;20044;-65
2022/10/12 12:46:07;;;;;;;7.18;1.80;;;15.10;99.90;;;;;;5093013;28;20504;-65
2022/10/12 12:48:38;;;;;;;5.32;1.70;;;15.40;99.90;;;;;;5089728;28;20410;-65
2022/10/12 12:51:13;;;;;;;9.70;1.60;;;15.30;99.90;;;;;;5087212;28;20044;-65
2022/10/12 12:54:00;;;;;;;6.32;1.80;;;15.30;99.90;;;;;;5079474;28;20115;-65
2022/10/12 12:56:50;;;;;;;12.63;1.73;;;15.30;99.90;;;;;;5094140;28;20060;-67
2022/10/12 12:59:46;;;;;;;8.30;2.25;;;15.30;99.90;;;;;;5092347;28;20048;-67
2022/10/12 13:02:30;;;;;;;;;;;15.20;99.90;;;;;;5079214;28;20174;-67
2022/10/12 13:05:05;;;;;;;6.97;2.20;;;15.20;99.90;;;;;;5079080;28;19920;-67
2022/10/12 13:07:42;;;;;;;9.25;2.13;;;15.40;99.90;;;;;;5085147;28;20044;-67
2022/10/12 13:10:36;;;;;;;8.57;2.63;;;15.40;99.90;;;;;;5093121;28;20085;-67
2022/10/12 13:13:07;;;;;;;6.00;2.15;;;15.40;99.90;;;;;;5085786;28;20040;-68